Time;durP1;ratioP1;P1;durP2;ratioP2;P2;SDS_P1;SDS_P2;PMS_P1;PMS_P2;Temp;Humidity;BMP_temperature;BMP_pressure;BME280_temperature;BME280_humidity;BME280_pressure;Samples;Min_cycle;Max_cycle;Signal;HPM_P1;HPM_P2
2021/06/28 00:00:12;;;;;;;5.07;4.10;;;18.60;99.90;;;;;;6219452;23;20428;-84
2021/06/28 00:02:41;;;;;;;4.80;4.10;;;18.70;99.90;;;;;;6219201;23;20667;-85
2021/06/28 00:05:09;;;;;;;5.45;4.47;;;18.60;99.90;;;;;;6219687;23;21611;-85
2021/06/28 00:07:35;;;;;;;5.13;4.40;;;18.70;99.90;;;;;;6219744;23;20019;-84
2021/06/28 00:10:02;;;;;;;6.90;4.28;;;18.60;99.90;;;;;;6246931;23;20071;-84
2021/06/28 00:12:28;;;;;;;5.68;4.30;;;18.60;99.90;;;;;;6247177;23;20011;-84
2021/06/28 00:14:54;;;;;;;7.13;4.32;;;18.50;99.90;;;;;;6219871;23;20028;-84
2021/06/28 00:17:20;;;;;;;6.00;4.53;;;18.50;99.90;;;;;;6246279;23;20102;-84
2021/06/28 00:19:45;;;;;;;5.10;4.22;;;18.50;99.90;;;;;;6246014;23;20014;-84
2021/06/28 00:22:11;;;;;;;4.30;3.40;;;18.50;99.90;;;;;;6219888;23;20035;-83
2021/06/28 00:24:37;;;;;;;4.35;3.65;;;18.50;99.90;;;;;;6219873;23;20004;-84
2021/06/28 00:27:03;;;;;;;4.78;3.60;;;18.50;99.90;;;;;;6244947;23;20000;-84
2021/06/28 00:29:28;;;;;;;4.40;4.00;;;18.50;99.90;;;;;;6246405;23;20008;-84
2021/06/28 00:31:55;;;;;;;4.68;4.18;;;18.50;99.90;;;;;;6219596;23;20011;-84
2021/06/28 00:34:22;;;;;;;5.32;4.03;;;18.50;99.90;;;;;;6246288;23;20004;-84
2021/06/28 00:36:48;;;;;;;5.03;4.05;;;18.40;99.90;;;;;;6219810;23;20426;-84
2021/06/28 00:39:14;;;;;;;4.78;3.80;;;18.40;99.90;;;;;;6219554;23;20004;-84
2021/06/28 00:41:40;;;;;;;4.82;4.22;;;18.40;99.90;;;;;;6218776;23;20436;-84
2021/06/28 00:44:06;;;;;;;5.22;3.80;;;18.40;99.90;;;;;;6218627;23;20371;-85
2021/06/28 00:46:32;;;;;;;4.60;3.83;;;18.40;99.90;;;;;;6245245;23;20073;-84
2021/06/28 00:48:58;;;;;;;5.25;4.25;;;18.40;99.90;;;;;;6245726;23;20007;-85
2021/06/28 00:51:24;;;;;;;4.50;4.05;;;18.30;99.90;;;;;;6218904;23;20008;-84
2021/06/28 00:53:51;;;;;;;5.50;4.30;;;18.30;99.90;;;;;;6219279;23;20052;-84
2021/06/28 00:56:19;;;;;;;4.88;4.38;;;18.20;99.90;;;;;;6219248;23;20000;-84
2021/06/28 00:58:45;;;;;;;5.45;4.15;;;18.30;99.90;;;;;;6194063;23;20008;-84
2021/06/28 01:01:12;;;;;;;4.85;4.00;;;18.30;99.90;;;;;;6217810;23;20067;-84
2021/06/28 01:03:39;;;;;;;5.32;4.07;;;18.20;99.90;;;;;;6220387;23;20012;-84
2021/06/28 01:06:07;;;;;;;5.32;3.97;;;18.20;99.90;;;;;;6220487;23;20016;-84
2021/06/28 01:08:35;;;;;;;4.97;4.07;;;18.10;99.90;;;;;;6220619;23;20008;-84
2021/06/28 01:11:02;;;;;;;5.50;4.60;;;18.10;99.90;;;;;;6248326;23;20449;-84
2021/06/28 01:13:32;;;;;;;4.70;4.13;;;18.10;99.90;;;;;;6246709;23;20018;-84
2021/06/28 01:16:00;;;;;;;7.85;4.68;;;18.10;99.90;;;;;;6220687;23;20015;-84
2021/06/28 01:18:26;;;;;;;5.57;4.30;;;18.10;99.90;;;;;;6220911;23;20032;-84
2021/06/28 01:20:52;;;;;;;5.07;4.40;;;18.10;99.90;;;;;;6220927;23;20444;-84
2021/06/28 01:23:23;;;;;;;5.38;4.45;;;18.10;99.90;;;;;;6220734;23;20094;-84
2021/06/28 01:25:54;;;;;;;6.07;4.60;;;18.10;99.90;;;;;;6231563;23;19992;-84
2021/06/28 01:28:21;;;;;;;5.72;4.65;;;18.00;99.90;;;;;;6263345;23;20004;-84
2021/06/28 01:30:48;;;;;;;7.05;4.47;;;18.00;99.90;;;;;;6221291;23;20008;-84
2021/06/28 01:33:15;;;;;;;5.00;4.15;;;18.00;99.90;;;;;;6247814;23;20001;-84
2021/06/28 01:35:41;;;;;;;5.22;4.55;;;18.00;99.90;;;;;;6220541;23;20028;-84
2021/06/28 01:38:09;;;;;;;7.35;4.65;;;18.00;99.90;;;;;;6248170;23;20000;-84
2021/06/28 01:40:36;;;;;;;5.55;4.80;;;18.00;99.90;;;;;;6221107;23;20035;-85
2021/06/28 01:43:03;;;;;;;6.03;4.88;;;18.00;99.90;;;;;;6220999;23;20062;-84
2021/06/28 01:45:29;;;;;;;5.70;4.75;;;17.90;99.90;;;;;;6219846;23;20082;-84
2021/06/28 01:47:59;;;;;;;6.15;4.78;;;18.00;99.90;;;;;;6243510;23;20000;-84
2021/06/28 01:50:27;;;;;;;4.90;4.40;;;18.00;99.90;;;;;;6245742;23;20028;-84
2021/06/28 01:52:54;;;;;;;5.10;4.60;;;17.90;99.90;;;;;;6246385;23;19996;-85
2021/06/28 01:55:21;;;;;;;5.80;4.63;;;17.90;99.90;;;;;;6219657;23;20011;-84
2021/06/28 01:57:52;;;;;;;5.95;5.10;;;17.90;99.90;;;;;;6246687;23;20475;-85
2021/06/28 02:00:26;;;;;;;6.25;5.43;;;17.90;99.90;;;;;;6246974;23;20011;-85
2021/06/28 02:03:17;;;;;;;5.63;4.97;;;17.90;99.90;;;;;;6220406;23;20008;-85
2021/06/28 02:05:58;;;;;;;5.90;4.40;;;17.90;99.90;;;;;;6245251;23;20012;-84
2021/06/28 02:08:27;;;;;;;5.30;4.80;;;17.90;99.90;;;;;;6218530;23;20072;-84
2021/06/28 02:10:56;;;;;;;4.88;4.00;;;17.90;99.90;;;;;;6218303;23;20066;-84
2021/06/28 02:13:25;;;;;;;5.85;5.05;;;17.90;99.90;;;;;;6219030;23;20321;-85
2021/06/28 02:15:53;;;;;;;5.40;4.40;;;17.90;99.90;;;;;;6219151;23;20417;-85
2021/06/28 02:18:24;;;;;;;5.68;4.68;;;17.80;99.90;;;;;;6219128;23;20076;-85
2021/06/28 02:20:52;;;;;;;6.35;4.78;;;17.80;99.90;;;;;;6247620;23;20373;-84
2021/06/28 02:23:20;;;;;;;5.35;4.32;;;17.90;99.90;;;;;;6220746;23;20455;-84
2021/06/28 02:25:50;;;;;;;6.35;4.10;;;17.90;99.90;;;;;;6220643;23;20003;-84
2021/06/28 02:28:17;;;;;;;5.30;4.78;;;17.80;99.90;;;;;;6220246;23;20020;-84
2021/06/28 02:30:44;;;;;;;5.43;4.60;;;17.80;99.90;;;;;;6247485;23;20047;-85
2021/06/28 02:33:09;;;;;;;5.68;5.00;;;17.80;99.90;;;;;;6247520;23;20018;-84
2021/06/28 02:35:35;;;;;;;6.28;5.43;;;17.70;99.90;;;;;;6220026;23;20079;-85
2021/06/28 02:38:01;;;;;;;5.53;4.80;;;17.70;99.90;;;;;;6220293;23;20000;-84
2021/06/28 02:40:27;;;;;;;6.80;5.15;;;17.70;99.90;;;;;;6220525;23;20441;-85
2021/06/28 02:42:52;;;;;;;7.43;4.82;;;17.70;99.90;;;;;;6219497;23;20004;-84
2021/06/28 02:45:18;;;;;;;5.55;5.03;;;17.70;99.90;;;;;;6220562;23;20439;-84
2021/06/28 02:47:44;;;;;;;6.10;5.07;;;17.70;99.90;;;;;;6220568;23;20004;-84
2021/06/28 02:50:13;;;;;;;5.63;4.68;;;17.60;99.90;;;;;;6246946;23;20000;-84
2021/06/28 02:52:40;;;;;;;5.72;4.65;;;17.70;99.90;;;;;;6220154;23;20034;-84
2021/06/28 02:55:10;;;;;;;5.70;4.47;;;17.70;99.90;;;;;;6219852;23;20351;-84
2021/06/28 02:57:36;;;;;;;4.72;3.92;;;17.70;99.90;;;;;;6219166;23;19996;-84
2021/06/28 03:00:10;;;;;;;6.47;5.00;;;17.60;99.90;;;;;;6246656;23;20444;-85
2021/06/28 03:02:37;;;;;;;5.90;4.82;;;17.60;99.90;;;;;;6219922;23;20008;-85
2021/06/28 03:05:06;;;;;;;5.85;4.88;;;17.60;99.90;;;;;;6246222;23;20000;-84
2021/06/28 03:07:33;;;;;;;5.95;4.55;;;17.60;99.90;;;;;;6239883;23;20004;-84
2021/06/28 03:10:00;;;;;;;5.30;4.80;;;17.50;99.90;;;;;;6220485;23;20008;-84
2021/06/28 03:12:26;;;;;;;5.43;4.60;;;17.50;99.90;;;;;;6221426;23;20370;-84
2021/06/28 03:14:52;;;;;;;6.10;4.95;;;17.50;99.90;;;;;;6263291;22;20004;-84
2021/06/28 03:17:18;;;;;;;6.13;4.43;;;17.50;99.90;;;;;;6254461;23;20023;-84
2021/06/28 03:19:45;;;;;;;5.97;4.70;;;17.50;99.90;;;;;;6247047;23;20071;-84
2021/06/28 03:22:10;;;;;;;6.47;4.85;;;17.50;99.90;;;;;;6247103;23;20004;-84
2021/06/28 03:24:38;;;;;;;5.45;4.82;;;17.50;99.90;;;;;;6218881;23;20015;-84
2021/06/28 03:27:05;;;;;;;5.05;4.10;;;17.50;99.90;;;;;;6220296;23;20047;-84
2021/06/28 03:29:31;;;;;;;5.82;4.47;;;17.40;99.90;;;;;;6219955;23;20034;-85
2021/06/28 03:31:59;;;;;;;5.60;4.70;;;17.40;99.90;;;;;;6220463;23;20083;-84
2021/06/28 03:34:25;;;;;;;5.05;4.38;;;17.40;99.90;;;;;;6220111;23;20083;-85
2021/06/28 03:36:53;;;;;;;5.25;4.20;;;17.40;99.90;;;;;;6220277;23;20013;-84
2021/06/28 03:39:19;;;;;;;4.75;4.13;;;17.40;99.90;;;;;;6247111;23;20000;-84
2021/06/28 03:41:45;;;;;;;6.03;5.10;;;17.40;99.90;;;;;;6245369;23;20007;-84
2021/06/28 03:44:10;;;;;;;5.68;4.93;;;17.40;99.90;;;;;;6220418;23;20061;-84
2021/06/28 03:46:39;;;;;;;5.90;4.95;;;17.30;99.90;;;;;;6220427;23;20003;-84
2021/06/28 03:49:23;;;;;;;7.45;4.70;;;17.30;99.90;;;;;;6219611;23;20082;-84
2021/06/28 03:51:49;;;;;;;6.80;5.00;;;17.30;99.90;;;;;;6219179;23;20008;-84
2021/06/28 03:54:15;;;;;;;5.90;4.72;;;17.30;99.90;;;;;;6194954;23;20004;-84
2021/06/28 03:56:43;;;;;;;6.72;4.85;;;17.30;99.90;;;;;;6246558;23;20038;-84
2021/06/28 03:59:09;;;;;;;5.80;5.07;;;17.30;99.90;;;;;;6246245;23;20170;-84
2021/06/28 04:01:35;;;;;;;6.60;4.65;;;17.30;99.90;;;;;;6245284;23;20087;-84
2021/06/28 04:04:01;;;;;;;6.45;5.05;;;17.30;99.90;;;;;;6246301;23;20454;-85
2021/06/28 04:06:26;;;;;;;5.40;4.75;;;17.30;99.90;;;;;;6245003;22;20008;-84
2021/06/28 04:08:52;;;;;;;6.20;4.72;;;17.30;99.90;;;;;;6245919;23;20000;-84
2021/06/28 04:11:18;;;;;;;4.85;4.30;;;17.40;99.90;;;;;;6218737;23;20004;-85
2021/06/28 04:13:45;;;;;;;5.88;5.28;;;17.40;99.90;;;;;;6246147;23;20010;-84
2021/06/28 04:16:11;;;;;;;6.28;5.10;;;17.40;99.90;;;;;;6219494;23;20004;-84
2021/06/28 04:18:37;;;;;;;6.15;4.90;;;17.40;99.90;;;;;;6219697;23;20007;-85
2021/06/28 04:21:03;;;;;;;6.68;5.40;;;17.40;99.90;;;;;;6246143;23;20000;-84
2021/06/28 04:23:29;;;;;;;5.82;5.22;;;17.40;99.90;;;;;;6246376;23;20052;-85
2021/06/28 04:25:55;;;;;;;6.18;4.90;;;17.40;99.90;;;;;;6244649;23;19997;-84
2021/06/28 04:28:21;;;;;;;6.25;5.55;;;17.40;99.90;;;;;;6246183;23;20066;-85
2021/06/28 04:30:47;;;;;;;6.68;5.47;;;17.40;99.90;;;;;;6219061;23;20357;-84
2021/06/28 04:33:13;;;;;;;7.07;5.40;;;17.40;99.90;;;;;;6244930;23;20014;-84
2021/06/28 04:35:39;;;;;;;6.20;5.50;;;17.40;99.90;;;;;;6241460;23;20043;-84
2021/06/28 04:38:04;;;;;;;6.97;5.55;;;17.50;99.90;;;;;;6217053;23;20000;-84
2021/06/28 04:40:31;;;;;;;6.80;5.28;;;17.50;99.90;;;;;;6216138;23;20348;-84
2021/06/28 04:42:57;;;;;;;7.57;5.80;;;17.50;99.90;;;;;;6216547;23;20012;-85
2021/06/28 04:45:27;;;;;;;6.88;6.18;;;17.60;99.90;;;;;;6216890;23;20004;-84
2021/06/28 04:47:53;;;;;;;6.60;5.18;;;17.70;99.90;;;;;;6242173;23;20065;-84
2021/06/28 04:50:23;;;;;;;6.15;5.20;;;17.70;99.90;;;;;;6216780;23;20086;-84
2021/06/28 04:52:56;;;;;;;6.28;5.60;;;17.80;99.90;;;;;;6216595;23;20035;-84
2021/06/28 04:55:25;;;;;;;5.82;5.20;;;17.90;99.90;;;;;;6212470;23;20093;-85
2021/06/28 04:57:52;;;;;;;6.40;5.25;;;18.00;99.90;;;;;;6245642;23;20892;-84
2021/06/28 05:00:21;;;;;;;5.70;4.88;;;18.00;99.90;;;;;;6245763;23;20000;-84
2021/06/28 05:02:49;;;;;;;7.10;5.45;;;18.10;99.90;;;;;;6235505;23;20064;-84
2021/06/28 05:05:16;;;;;;;7.03;5.35;;;18.20;99.90;;;;;;6264820;23;19997;-84
2021/06/28 05:07:42;;;;;;;6.13;5.45;;;18.20;99.90;;;;;;6216989;23;20004;-84
2021/06/28 05:10:09;;;;;;;8.07;6.50;;;18.30;99.90;;;;;;6219624;23;20000;-84
2021/06/28 05:12:38;;;;;;;6.95;6.20;;;18.30;99.90;;;;;;6218518;23;20396;-85
2021/06/28 05:15:09;;;;;;;6.65;5.82;;;18.40;99.90;;;;;;6246549;23;20000;-85
2021/06/28 05:17:35;;;;;;;7.40;6.32;;;18.40;99.90;;;;;;6219372;23;19996;-84
2021/06/28 05:20:03;;;;;;;7.75;6.03;;;18.50;99.90;;;;;;6219062;23;19996;-85
2021/06/28 05:22:30;;;;;;;6.68;5.85;;;18.50;99.90;;;;;;6217739;23;20094;-84
2021/06/28 05:24:55;;;;;;;7.90;7.10;;;18.60;99.90;;;;;;6217590;23;20009;-84
2021/06/28 05:27:24;;;;;;;7.63;6.53;;;18.60;99.90;;;;;;6191598;23;20314;-85
2021/06/28 05:29:56;;;;;;;8.50;6.63;;;18.60;99.90;;;;;;6245263;23;20071;-84
2021/06/28 05:32:27;;;;;;;7.65;6.78;;;18.70;99.90;;;;;;6244328;23;20005;-84
2021/06/28 05:34:55;;;;;;;8.65;7.10;;;18.70;99.90;;;;;;6243367;23;20003;-86
2021/06/28 05:37:21;;;;;;;7.78;6.63;;;18.80;99.90;;;;;;6243198;23;20409;-86
2021/06/28 05:39:59;;;;;;;;;;;;;;;;;;;;;
2021/06/28 05:42:29;;;;;;;7.07;6.38;;;18.80;99.90;;;;;;6242736;23;20079;-84
2021/06/28 05:45:05;;;;;;;7.63;6.43;;;18.80;99.90;;;;;;6190598;23;20067;-85
2021/06/28 05:47:40;;;;;;;8.20;7.32;;;18.80;99.90;;;;;;6215837;23;20131;-85
2021/06/28 05:50:12;;;;;;;7.43;6.60;;;18.90;99.90;;;;;;6244731;23;19996;-86
2021/06/28 05:52:40;;;;;;;7.78;6.68;;;18.90;99.90;;;;;;6242988;23;19996;-87
2021/06/28 05:55:11;;;;;;;8.52;6.78;;;19.00;99.90;;;;;;6216179;23;20083;-86
2021/06/28 05:57:52;;;;;;;;;;;;;;;;;;;;;
2021/06/28 06:00:39;;;;;;;;;;;;;;;;;;;;;
2021/06/28 06:03:52;;;;;;;;;;;;;;;;;;;;;
2021/06/28 06:06:46;;;;;;;8.48;7.50;;;19.20;99.90;;;;;;6240369;23;20086;-87
2021/06/28 06:13:28;;;;;;;;;;;;;;;;;;;;;
2021/06/28 06:20:05;;;;;;;;;;;;;;;;;;;;;
2021/06/28 07:14:24;;;;;;;10.35;7.57;;;20.20;99.90;;;;;;6177799;22;1706537;-84
2021/06/28 07:16:50;;;;;;;10.82;8.68;;;20.20;99.90;;;;;;6197415;23;20008;-86
2021/06/28 07:27:49;;;;;;;10.68;9.55;;;20.30;99.90;;;;;;6315939;22;20014;-91
2021/06/28 07:30:21;;;;;;;10.50;9.35;;;20.40;99.90;;;;;;6316992;22;20029;-93
2021/06/28 07:32:53;;;;;;;11.50;9.60;;;20.50;99.90;;;;;;6291962;22;19999;-88
2021/06/28 07:35:21;;;;;;;11.37;9.80;;;20.60;99.90;;;;;;6319261;22;20005;-94
2021/06/28 07:37:48;;;;;;;11.85;10.65;;;20.60;99.90;;;;;;6316663;22;20211;-93
2021/06/28 07:40:16;;;;;;;11.65;9.38;;;20.70;99.90;;;;;;6317308;22;20060;-91
2021/06/28 07:42:42;;;;;;;10.90;9.05;;;20.80;99.90;;;;;;6313148;22;20027;-90
2021/06/28 07:45:09;;;;;;;10.38;9.13;;;20.80;99.90;;;;;;6318773;22;20003;-90
2021/06/28 07:47:42;;;;;;;12.30;10.65;;;20.90;99.90;;;;;;6317918;22;20374;-90
2021/06/28 07:50:08;;;;;;;;;;;21.10;99.90;;;;;;6318453;22;20108;-89
2021/06/28 07:52:35;;;;;;;9.68;8.68;;;21.10;99.90;;;;;;6314873;22;19907;-92
2021/06/28 07:55:03;;;;;;;12.38;10.00;;;21.20;99.90;;;;;;6315353;22;19995;-91
2021/06/28 07:57:28;;;;;;;9.77;8.73;;;21.30;99.90;;;;;;6315613;22;20007;-90
2021/06/28 07:59:54;;;;;;;11.27;9.23;;;21.30;99.90;;;;;;6312882;22;20026;-91
2021/06/28 08:02:20;;;;;;;13.13;11.75;;;21.40;99.90;;;;;;6314092;22;20010;-92
2021/06/28 08:05:02;;;;;;;15.10;13.30;;;21.40;99.90;;;;;;6314990;22;20463;-93
2021/06/28 08:57:01;;;;;;;12.20;10.90;;;23.00;99.90;;;;;;6296594;22;20051;-89
2021/06/28 08:59:27;;;;;;;13.00;11.63;;;23.20;99.90;;;;;;6308963;22;20008;-86
2021/06/28 09:01:53;;;;;;;11.27;9.60;;;23.30;99.90;;;;;;6281427;22;20084;-87
2021/06/28 09:04:19;;;;;;;9.55;8.55;;;23.30;99.90;;;;;;6310400;22;20017;-86
2021/06/28 09:06:45;;;;;;;10.18;9.15;;;23.40;99.90;;;;;;6255022;22;20007;-88
2021/06/28 09:09:15;;;;;;;10.98;8.30;;;23.50;99.90;;;;;;6307545;22;19999;-88
2021/06/28 09:11:47;;;;;;;10.85;9.15;;;23.50;99.90;;;;;;6310007;22;20022;-88
2021/06/28 09:14:15;;;;;;;8.13;7.07;;;23.60;99.90;;;;;;6308866;22;20006;-88
2021/06/28 09:16:43;;;;;;;9.45;7.18;;;23.70;99.90;;;;;;6281438;22;20003;-89
2021/06/28 09:19:14;;;;;;;11.65;9.75;;;23.90;99.90;;;;;;6281009;22;20448;-86
2021/06/28 09:21:52;;;;;;;12.15;10.85;;;24.00;99.90;;;;;;6283356;22;20061;-91
2021/06/28 09:24:36;;;;;;;10.52;9.43;;;24.20;99.90;;;;;;6281912;22;20007;-93
2021/06/28 09:27:14;;;;;;;9.30;8.27;;;24.30;99.90;;;;;;6283544;22;20010;-93
2021/06/28 09:29:50;;;;;;;9.43;8.32;;;24.60;99.90;;;;;;6281422;22;20425;-94
2021/06/28 09:32:18;;;;;;;10.68;9.57;;;24.90;99.90;;;;;;6280137;22;20011;-91
2021/06/28 09:34:47;;;;;;;9.73;8.77;;;25.20;99.90;;;;;;6280364;22;20040;-91
2021/06/28 09:37:18;;;;;;;10.80;9.13;;;25.80;99.90;;;;;;6281913;22;20003;-90
2021/06/28 09:39:57;;;;;;;9.40;8.30;;;26.10;99.90;;;;;;6282836;22;20438;-91
2021/06/28 09:42:25;;;;;;;8.65;7.53;;;26.30;99.90;;;;;;6285852;22;20006;-92
2021/06/28 09:44:57;;;;;;;9.40;8.40;;;26.20;99.90;;;;;;6258700;22;20010;-91
2021/06/28 09:47:28;;;;;;;7.70;6.88;;;26.00;99.90;;;;;;6281024;22;19995;-91
2021/06/28 09:50:18;;;;;;;7.75;6.97;;;25.80;99.90;;;;;;6285296;22;20025;-89
2021/06/28 09:52:51;;;;;;;6.47;5.82;;;25.70;99.90;;;;;;6309135;22;20014;-91
2021/06/28 09:55:21;;;;;;;7.63;6.55;;;25.50;99.90;;;;;;6282361;22;20610;-89
2021/06/28 09:58:26;;;;;;;7.40;6.47;;;25.40;99.90;;;;;;6281198;22;20015;-90
2021/06/28 10:12:21;;;;;;;6.90;6.03;;;25.20;99.90;;;;;;6304778;22;20019;-89
2021/06/28 10:14:47;;;;;;;7.47;6.78;;;25.20;99.90;;;;;;6279319;22;20007;-91
2021/06/28 10:17:14;;;;;;;8.85;7.90;;;25.10;99.90;;;;;;6306184;22;19995;-89
2021/06/28 10:19:44;;;;;;;8.57;7.68;;;25.10;99.90;;;;;;6278484;22;20045;-90
2021/06/28 10:22:10;;;;;;;8.50;7.60;;;25.00;99.90;;;;;;6278882;22;20013;-90
2021/06/28 10:24:36;;;;;;;8.38;7.13;;;25.00;99.90;;;;;;6279322;22;20090;-89
2021/06/28 10:27:04;;;;;;;9.40;7.43;;;25.00;99.90;;;;;;6278553;22;20064;-89
2021/06/28 10:29:37;;;;;;;7.38;6.43;;;25.00;99.90;;;;;;6279872;22;20384;-92
2021/06/28 10:32:08;;;;;;;7.20;6.50;;;25.00;99.90;;;;;;6289659;22;20007;-91
2021/06/28 10:59:54;;;;;;;7.25;6.10;;;24.80;99.90;;;;;;6301286;22;20514;-91
2021/06/28 11:02:20;;;;;;;7.32;6.28;;;24.80;99.90;;;;;;6289473;22;20010;-91
2021/06/28 11:04:59;;;;;;;8.75;7.53;;;24.70;99.90;;;;;;6272377;22;20136;-92
2021/06/28 11:07:51;;;;;;;8.52;7.72;;;24.70;99.90;;;;;;6282788;22;20004;-94
2021/06/28 11:10:42;;;;;;;9.32;7.80;;;24.60;99.90;;;;;;6279990;22;20008;-91
2021/06/28 11:13:39;;;;;;;8.82;6.75;;;24.50;99.90;;;;;;6280845;22;20010;-90
2021/06/28 11:16:30;;;;;;;8.32;7.50;;;24.40;99.90;;;;;;6281473;22;20003;-90
2021/06/28 11:18:56;;;;;;;11.10;9.40;;;24.40;99.90;;;;;;6281139;22;19995;-93
2021/06/28 11:21:39;;;;;;;10.85;9.52;;;24.30;99.90;;;;;;6281088;22;20008;-93
2021/06/28 11:24:04;;;;;;;11.40;9.57;;;24.20;99.90;;;;;;6281018;22;19995;-92
2021/06/28 11:26:35;;;;;;;10.32;8.32;;;24.10;99.90;;;;;;6281159;22;20003;-92
2021/06/28 11:29:01;;;;;;;9.77;8.75;;;24.10;99.90;;;;;;6280449;22;20334;-91
2021/06/28 11:48:50;;;;;;;;;;;;;;;;;;;;;
2021/06/28 11:52:16;;;;;;;;;;;;;;;;;;;;;
2021/06/28 12:06:40;;;;;;;;;;;;;;;;;;;;;
2021/06/28 12:21:26;;;;;;;;;;;;;;;;;;;;;
2021/06/28 12:56:19;;;;;;;;;;;;;;;;;;;;;
2021/06/28 13:09:58;;;;;;;;;;;;;;;;;;;;;
2021/06/28 13:30:48;;;;;;;;;;;;;;;;;;;;;
2021/06/28 13:37:40;;;;;;;9.85;7.68;;;24.50;99.90;;;;;;5888516;24;20070;-88
2021/06/28 13:45:22;;;;;;;9.57;8.63;;;24.60;99.90;;;;;;6334143;22;20025;-87
2021/06/28 13:51:49;;;;;;;;;;;;;;;;;;;;;
2021/06/28 13:54:48;;;;;;;;;;;;;;;;;;;;;
2021/06/28 13:58:13;;;;;;;9.50;8.52;;;25.00;99.90;;;;;;6250990;23;20018;-87
2021/06/28 14:01:18;;;;;;;;;;;;;;;;;;;;;
2021/06/28 14:07:30;;;;;;;10.52;9.40;;;25.90;99.90;;;;;;6333985;22;20006;-88
2021/06/28 14:10:31;;;;;;;;;;;;;;;;;;;;;
2021/06/28 14:18:03;;;;;;;;;;;;;;;;;;;;;
2021/06/28 14:35:25;;;;;;;;;;;;;;;;;;;;;
2021/06/28 14:38:26;;;;;;;7.65;6.82;;;25.10;99.90;;;;;;6030497;23;20014;-87
2021/06/28 15:05:44;;;;;;;;;;;;;;;;;;;;;
2021/06/28 15:19:23;;;;;;;;;;;;;;;;;;;;;
2021/06/28 15:22:56;;;;;;;10.85;7.53;;;26.30;99.90;;;;;;6049327;23;20019;-87
2021/06/28 15:32:44;;;;;;;;;;;;;;;;;;;;;
2021/06/28 15:36:06;;;;;;;10.85;9.43;;;26.20;99.90;;;;;;6126735;23;20012;-87
2021/06/28 15:42:22;;;;;;;9.75;8.73;;;26.20;99.90;;;;;;6102176;23;20089;-86
2021/06/28 15:48:36;;;;;;;12.43;11.23;;;26.00;99.90;;;;;;6219309;22;20000;-86
2021/06/28 15:51:51;;;;;;;11.45;10.25;;;26.00;99.90;;;;;;6239967;22;20008;-86
2021/06/28 15:58:45;;;;;;;;;;;;;;;;;;;;;
2021/06/28 16:02:42;;;;;;;;;;;;;;;;;;;;;
2021/06/28 16:05:11;;;;;;;;;;;;;;;;;;;;;
2021/06/28 16:07:57;;;;;;;8.60;7.78;;;26.20;99.90;;;;;;6263750;22;20086;-87
2021/06/28 16:10:45;;;;;;;;;;;;;;;;;;;;;
2021/06/28 16:13:38;;;;;;;9.93;8.95;;;26.10;99.90;;;;;;6276952;22;20094;-87
2021/06/28 16:16:07;;;;;;;8.88;7.97;;;26.00;99.90;;;;;;6245166;22;20062;-87
2021/06/28 16:26:21;;;;;;;9.52;8.63;;;25.90;99.90;;;;;;6275846;22;20004;-86
2021/06/28 16:29:10;;;;;;;7.43;6.68;;;25.80;99.90;;;;;;6272476;22;20069;-87
2021/06/28 16:32:15;;;;;;;7.47;6.30;;;26.00;99.90;;;;;;6225842;22;20008;-86
2021/06/28 16:35:04;;;;;;;7.18;6.28;;;26.20;99.90;;;;;;6249042;22;20004;-87
2021/06/28 16:37:57;;;;;;;7.80;7.00;;;26.30;99.90;;;;;;6275942;22;20004;-87
2021/06/28 16:41:21;;;;;;;8.18;6.63;;;26.30;99.90;;;;;;6247953;22;20031;-87
2021/06/28 16:54:52;;;;;;;7.15;6.45;;;26.20;99.90;;;;;;6290757;22;20317;-88
2021/06/28 17:08:17;;;;;;;8.40;7.28;;;25.90;99.90;;;;;;6067244;23;20077;-88
2021/06/28 17:11:26;;;;;;;10.27;8.07;;;25.80;99.90;;;;;;6007138;23;20016;-86
2021/06/28 17:22:22;;;;;;;;;;;;;;;;;;;;;
2021/06/28 17:36:25;;;;;;;;;;;;;;;;;;;;;
2021/06/28 17:54:49;;;;;;;;;;;;;;;;;;;;;
2021/06/28 17:57:46;;;;;;;8.80;8.00;;;24.20;99.90;;;;;;5861069;24;20081;-87
2021/06/28 18:04:41;;;;;;;;;;;;;;;;;;;;;
2021/06/28 18:07:48;;;;;;;9.15;7.93;;;24.30;99.90;;;;;;5890226;24;20028;-87
2021/06/28 18:10:55;;;;;;;8.20;7.40;;;24.30;99.90;;;;;;5847207;24;20889;-86
2021/06/28 18:14:14;;;;;;;;;;;;;;;;;;;;;
2021/06/28 18:16:47;;;;;;;8.25;7.35;;;24.40;99.90;;;;;;5928047;24;20013;-91
2021/06/28 18:19:16;;;;;;;8.38;7.47;;;24.40;99.90;;;;;;5977263;23;20478;-89
2021/06/28 18:21:47;;;;;;;8.50;7.70;;;24.40;99.90;;;;;;6029258;23;20082;-90
2021/06/28 18:24:15;;;;;;;8.70;7.63;;;24.40;99.90;;;;;;6165566;22;20014;-93
2021/06/28 18:26:46;;;;;;;8.25;7.35;;;24.40;99.90;;;;;;6273499;22;20041;-92
2021/06/28 18:29:45;;;;;;;7.93;7.13;;;24.40;99.90;;;;;;6273033;22;20513;-90
2021/06/28 18:32:25;;;;;;;7.53;6.65;;;24.40;99.90;;;;;;6299964;22;20394;-89
2021/06/28 18:35:21;;;;;;;7.53;6.82;;;24.30;99.90;;;;;;6273176;22;20427;-91
2021/06/28 18:41:18;;;;;;;7.20;6.35;;;24.30;99.90;;;;;;6278146;22;20015;-92
2021/06/28 18:50:43;;;;;;;;;;;;;;;;;;;;;
2021/06/28 18:53:29;;;;;;;;;;;;;;;;;;;;;
2021/06/28 18:59:17;;;;;;;6.70;6.00;;;23.90;99.90;;;;;;6269804;22;20101;-89
2021/06/28 19:02:23;;;;;;;;;;;;;;;;;;;;;
2021/06/28 19:08:17;;;;;;;6.93;6.30;;;24.00;99.90;;;;;;6259193;22;20097;-90
2021/06/28 19:20:28;;;;;;;;;;;;;;;;;;;;;
2021/06/28 19:23:05;;;;;;;7.78;6.97;;;23.80;99.90;;;;;;6180011;23;20084;-93
2021/06/28 19:26:18;;;;;;;8.10;6.50;;;23.70;99.90;;;;;;6160459;23;20001;-90
2021/06/28 19:28:55;;;;;;;7.90;7.10;;;23.60;99.90;;;;;;6167266;23;19993;-88
2021/06/28 19:34:47;;;;;;;7.25;6.55;;;23.30;99.90;;;;;;6179841;23;20420;-88
2021/06/28 19:49:09;;;;;;;7.63;6.82;;;22.70;99.90;;;;;;5969730;23;20696;-88
2021/06/28 19:56:18;;;;;;;;;;;;;;;;;;;;;
2021/06/28 20:03:10;;;;;;;9.90;8.13;;;22.60;99.90;;;;;;6190886;23;20017;-88
2021/06/28 20:13:15;;;;;;;;;;;;;;;;;;;;;
2021/06/28 20:27:09;;;;;;;;;;;;;;;;;;;;;
2021/06/28 20:37:42;;;;;;;;;;;;;;;;;;;;;
2021/06/28 20:41:41;;;;;;;;;;;;;;;;;;;;;
2021/06/28 20:44:32;;;;;;;;;;;;;;;;;;;;;
2021/06/28 20:58:39;;;;;;;;;;;;;;;;;;;;;
2021/06/28 21:34:56;;;;;;;;;;;;;;;;;;;;;
2021/06/28 21:41:06;;;;;;;;;;;;;;;;;;;;;
2021/06/28 21:55:19;;;;;;;10.68;9.63;;;21.30;99.90;;;;;;6207911;23;20119;-87
2021/06/28 22:05:15;;;;;;;;;;;;;;;;;;;;;
2021/06/28 22:12:09;;;;;;;10.88;9.55;;;21.10;99.90;;;;;;6073312;23;20013;-87
2021/06/28 22:15:33;;;;;;;10.50;9.50;;;21.00;99.90;;;;;;6117568;23;20006;-87
2021/06/28 22:22:45;;;;;;;;;;;;;;;;;;;;;
2021/06/28 22:26:07;;;;;;;;;;;;;;;;;;;;;
2021/06/28 22:32:23;;;;;;;11.13;9.98;;;21.00;99.90;;;;;;6030218;23;20425;-87
2021/06/28 22:35:31;;;;;;;;;;;;;;;;;;;;;
2021/06/28 22:52:19;;;;;;;;;;;;;;;;;;;;;
2021/06/28 22:55:39;;;;;;;;;;;;;;;;;;;;;
2021/06/28 22:59:20;;;;;;;;;;;;;;;;;;;;;
2021/06/28 23:02:56;;;;;;;;;;;;;;;;;;;;;
2021/06/28 23:05:37;;;;;;;;;;;;;;;;;;;;;
2021/06/28 23:15:22;;;;;;;;;;;;;;;;;;;;;
2021/06/28 23:18:14;;;;;;;;;;;;;;;;;;;;;
2021/06/28 23:24:28;;;;;;;12.38;11.07;;;20.60;99.90;;;;;;6303237;22;20015;-89
2021/06/28 23:27:47;;;;;;;;;;;;;;;;;;;;;
2021/06/28 23:30:39;;;;;;;13.52;12.13;;;20.60;99.90;;;;;;6294145;22;20015;-89
2021/06/28 23:36:51;;;;;;;;;;;;;;;;;;;;;
2021/06/28 23:42:50;;;;;;;14.88;12.52;;;20.40;99.90;;;;;;6177303;23;20013;-89
2021/06/28 23:49:43;;;;;;;;;;;;;;;;;;;;;
2021/06/28 23:52:37;;;;;;;13.82;12.43;;;20.40;99.90;;;;;;6091052;23;20550;-88
